Time;durP1;ratioP1;P1;durP2;ratioP2;P2;SDS_P1;SDS_P2;PMS_P1;PMS_P2;Temp;Humidity;BMP_temperature;BMP_pressure;BME280_temperature;BME280_humidity;BME280_pressure;Samples;Min_cycle;Max_cycle;Signal;HPM_P1;HPM_P2
2021/01/12 00:01:17;;;;;;;;;;;;;;;;;;5055012;28;19905;-67
2021/01/12 00:03:47;;;;;;;;;;;;;;;;;;5057807;28;19960;-67
2021/01/12 00:06:13;;;;;;;;;;;;;;;;;;5045645;28;20002;-68
2021/01/12 00:08:39;;;;;;;;;;;;;;;;;;5046287;28;20181;-67
2021/01/12 00:11:04;;;;;;;;;;;;;;;;;;5047034;28;19905;-68
2021/01/12 00:13:30;;;;;;;;;;;;;;;;;;5055373;28;19931;-68
2021/01/12 00:15:56;;;;;;;;;;;;;;;;;;5054853;28;19958;-68
2021/01/12 00:18:22;;;;;;;;;;;;;;;;;;5051562;28;19944;-68
2021/01/12 00:20:48;;;;;;;;;;;;;;;;;;5060286;28;19962;-68
2021/01/12 00:23:14;;;;;;;;;;;;;;;;;;5056757;28;20276;-68
2021/01/12 00:25:40;;;;;;;;;;;;;;;;;;5058645;28;19908;-68
2021/01/12 00:28:06;;;;;;;;;;;;;;;;;;5043863;28;19986;-68
2021/01/12 00:30:31;;;;;;;;;;;;;;;;;;5052765;28;19909;-68
2021/01/12 00:32:57;;;;;;;;;;;;;;;;;;5057232;28;19916;-68
2021/01/12 00:35:23;;;;;;;;;;;;;;;;;;5053436;28;20072;-68
2021/01/12 00:37:49;;;;;;;;;;;;;;;;;;5055347;28;19913;-68
2021/01/12 00:40:15;;;;;;;;;;;;;;;;;;5053644;28;19915;-67
2021/01/12 00:42:41;;;;;;;;;;;;;;;;;;5048558;28;20303;-69
2021/01/12 00:45:07;;;;;;;;;;;;;;;;;;5053502;28;20392;-68
2021/01/12 00:47:33;;;;;;;;;;;;;;;;;;5052132;28;19909;-68
2021/01/12 00:49:58;;;;;;;;;;;;;;;;;;5052565;28;20010;-67
2021/01/12 00:52:24;;;;;;;;;;;;;;;;;;5051074;28;19999;-68
2021/01/12 00:54:50;;;;;;;;;;;;;;;;;;5053303;28;19963;-68
2021/01/12 00:57:16;;;;;;;;;;;;;;;;;;5042784;28;19948;-68
2021/01/12 00:59:45;;;;;;;;;;;;;;;;;;5057328;28;19912;-68
2021/01/12 01:02:11;;;;;;;;;;;;;;;;;;5051992;28;19923;-68
2021/01/12 01:04:37;;;;;;;;;;;;;;;;;;5054097;28;19905;-68
2021/01/12 01:07:03;;;;;;;;;;;;;;;;;;5053334;28;19927;-68
2021/01/12 01:09:29;;;;;;;;;;;;;;;;;;5050680;28;20003;-67
2021/01/12 01:11:55;;;;;;;;;;;;;;;;;;5045289;28;19959;-67
2021/01/12 01:14:21;;;;;;;;;;;;;;;;;;5048416;28;19955;-68
2021/01/12 01:16:47;;;;;;;;;;;;;;;;;;5043691;28;19908;-68
2021/01/12 01:19:12;;;;;;;;;;;;;;;;;;5056484;28;19917;-68
2021/01/12 01:21:38;;;;;;;;;;;;;;;;;;5052669;28;19912;-67
2021/01/12 01:24:04;;;;;;;;;;;;;;;;;;5056065;28;19905;-68
2021/01/12 01:26:30;;;;;;;;;;;;;;;;;;5051677;28;19955;-68
2021/01/12 01:28:56;;;;;;;;;;;;;;;;;;5053108;28;19905;-68
2021/01/12 01:31:22;;;;;;;;;;;;;;;;;;5055329;28;20038;-68
2021/01/12 01:33:48;;;;;;;;;;;;;;;;;;5051268;28;20003;-68
2021/01/12 01:36:14;;;;;;;;;;;;;;;;;;5054160;28;20253;-68
2021/01/12 01:38:40;;;;;;;;;;;;;;;;;;5061140;28;19951;-67
2021/01/12 01:41:06;;;;;;;;;;;;;;;;;;5052682;28;20335;-67
2021/01/12 01:43:32;;;;;;;;;;;;;;;;;;5058340;28;19912;-68
2021/01/12 01:45:58;;;;;;;;;;;;;;;;;;5053858;28;19952;-68
2021/01/12 01:48:23;;;;;;;;;;;;;;;;;;5057045;28;19943;-68
2021/01/12 01:50:49;;;;;;;;;;;;;;;;;;5047205;28;20353;-68
2021/01/12 01:53:15;;;;;;;;;;;;;;;;;;5052455;28;19963;-68
2021/01/12 01:55:41;;;;;;;;;;;;;;;;;;5048926;28;20324;-68
2021/01/12 01:58:07;;;;;;;;;;;;;;;;;;5053417;28;19904;-68
2021/01/12 02:00:33;;;;;;;;;;;;;;;;;;5048264;28;20379;-68
2021/01/12 02:02:59;;;;;;;;;;;;;;;;;;5046005;28;19908;-68
2021/01/12 02:05:25;;;;;;;;;;;;;;;;;;5050559;28;20016;-68
2021/01/12 02:07:51;;;;;;;;;;;;;;;;;;5052695;28;19966;-68
2021/01/12 02:10:16;;;;;;;;;;;;;;;;;;5052193;28;19932;-68
2021/01/12 02:12:42;;;;;;;;;;;;;;;;;;5050401;28;19920;-68
2021/01/12 02:15:08;;;;;;;;;;;;;;;;;;5046637;28;19928;-68
2021/01/12 02:17:34;;;;;;;;;;;;;;;;;;5045609;28;19909;-68
2021/01/12 02:20:00;;;;;;;;;;;;;;;;;;5036741;28;20391;-68
2021/01/12 02:22:26;;;;;;;;;;;;;;;;;;5040382;28;19919;-68
2021/01/12 02:24:52;;;;;;;;;;;;;;;;;;5049335;28;19912;-68
2021/01/12 02:27:17;;;;;;;;;;;;;;;;;;5046620;28;19909;-68
2021/01/12 02:29:43;;;;;;;;;;;;;;;;;;5052488;28;20272;-67
2021/01/12 02:32:09;;;;;;;;;;;;;;;;;;5050225;28;19912;-66
2021/01/12 02:34:35;;;;;;;;;;;;;;;;;;5052571;28;19952;-66
2021/01/12 02:37:01;;;;;;;;;;;;;;;;;;5055456;28;19917;-66
2021/01/12 02:39:27;;;;;;;;;;;;;;;;;;5053388;28;19905;-66
2021/01/12 02:41:53;;;;;;;;;;;;;;;;;;5056283;28;19908;-66
2021/01/12 02:44:18;;;;;;;;;;;;;;;;;;5051357;28;19943;-66
2021/01/12 02:46:44;;;;;;;;;;;;;;;;;;5050448;28;20003;-66
2021/01/12 02:49:10;;;;;;;;;;;;;;;;;;5050723;28;19944;-66
2021/01/12 02:51:36;;;;;;;;;;;;;;;;;;5047955;28;19960;-67
2021/01/12 02:54:02;;;;;;;;;;;;;;;;;;5051926;28;19916;-66
2021/01/12 02:56:28;;;;;;;;;;;;;;;;;;5043809;28;19917;-66
2021/01/12 02:58:54;;;;;;;;;;;;;;;;;;5049757;28;19913;-66
2021/01/12 03:01:20;;;;;;;;;;;;;;;;;;5050136;28;19908;-66
2021/01/12 03:03:45;;;;;;;;;;;;;;;;;;5052929;28;19932;-67
2021/01/12 03:06:11;;;;;;;;;;;;;;;;;;5051642;28;19915;-67
2021/01/12 03:08:37;;;;;;;;;;;;;;;;;;5056027;28;19909;-66
2021/01/12 03:11:03;;;;;;;;;;;;;;;;;;5054000;28;20339;-66
2021/01/12 03:13:29;;;;;;;;;;;;;;;;;;5054735;28;19916;-67
2021/01/12 03:15:55;;;;;;;;;;;;;;;;;;5053884;28;19955;-67
2021/01/12 03:18:21;;;;;;;;;;;;;;;;;;5054514;28;20128;-67
2021/01/12 03:20:46;;;;;;;;;;;;;;;;;;5051689;28;19943;-67
2021/01/12 03:23:13;;;;;;;;;;;;;;;;;;5046305;28;19908;-67
2021/01/12 03:25:38;;;;;;;;;;;;;;;;;;5041448;28;19913;-67
2021/01/12 03:28:06;;;;;;;;;;;;;;;;;;5051420;28;20357;-67
2021/01/12 03:30:32;;;;;;;;;;;;;;;;;;5052354;28;19909;-67
2021/01/12 03:32:58;;;;;;;;;;;;;;;;;;5053762;28;19916;-66
2021/01/12 03:35:24;;;;;;;;;;;;;;;;;;5053902;28;19967;-66
2021/01/12 03:37:50;;;;;;;;;;;;;;;;;;5055438;28;19905;-67
2021/01/12 03:40:16;;;;;;;;;;;;;;;;;;5053644;28;19911;-67
2021/01/12 03:42:42;;;;;;;;;;;;;;;;;;5047781;28;19979;-67
2021/01/12 03:45:07;;;;;;;;;;;;;;;;;;5053933;28;19904;-66
2021/01/12 03:47:33;;;;;;;;;;;;;;;;;;5052266;28;19908;-66
2021/01/12 03:49:59;;;;;;;;;;;;;;;;;;5055221;28;20019;-67
2021/01/12 03:52:25;;;;;;;;;;;;;;;;;;5050275;28;19968;-67
2021/01/12 03:54:51;;;;;;;;;;;;;;;;;;5054766;28;20311;-67
2021/01/12 03:57:17;;;;;;;;;;;;;;;;;;5053412;28;19908;-66
2021/01/12 03:59:43;;;;;;;;;;;;;;;;;;5054762;28;19959;-66
2021/01/12 04:02:09;;;;;;;;;;;;;;;;;;5052140;28;19920;-67
2021/01/12 04:04:34;;;;;;;;;;;;;;;;;;5054349;28;19908;-66
2021/01/12 04:07:00;;;;;;;;;;;;;;;;;;5053235;28;20399;-67
2021/01/12 04:09:26;;;;;;;;;;;;;;;;;;5052939;28;19912;-67
2021/01/12 04:11:52;;;;;;;;;;;;;;;;;;5051402;28;20008;-66
2021/01/12 04:14:18;;;;;;;;;;;;;;;;;;5054659;28;20377;-67
2021/01/12 04:16:44;;;;;;;;;;;;;;;;;;5052867;28;19959;-67
2021/01/12 04:19:10;;;;;;;;;;;;;;;;;;5049334;28;20201;-66
2021/01/12 04:21:35;;;;;;;;;;;;;;;;;;5051583;28;20359;-67
2021/01/12 04:24:01;;;;;;;;;;;;;;;;;;5054197;28;19904;-67
2021/01/12 04:26:27;;;;;;;;;;;;;;;;;;5041084;28;19913;-66
2021/01/12 04:28:53;;;;;;;;;;;;;;;;;;5043949;28;20349;-67
2021/01/12 04:31:19;;;;;;;;;;;;;;;;;;5043901;28;19909;-66
2021/01/12 04:33:45;;;;;;;;;;;;;;;;;;5053442;28;20293;-67
2021/01/12 04:36:11;;;;;;;;;;;;;;;;;;5049442;28;20019;-67
2021/01/12 04:38:36;;;;;;;;;;;;;;;;;;5053588;28;19916;-67
2021/01/12 04:41:02;;;;;;;;;;;;;;;;;;5048591;28;19909;-67
2021/01/12 04:43:28;;;;;;;;;;;;;;;;;;5053481;28;19958;-67
2021/01/12 04:45:54;;;;;;;;;;;;;;;;;;5051911;28;19963;-67
2021/01/12 04:48:20;;;;;;;;;;;;;;;;;;5053226;28;19912;-67
2021/01/12 04:50:46;;;;;;;;;;;;;;;;;;5051615;28;19932;-66
2021/01/12 04:53:12;;;;;;;;;;;;;;;;;;5052045;28;19921;-67
2021/01/12 04:55:38;;;;;;;;;;;;;;;;;;5049824;28;19927;-67
2021/01/12 04:58:03;;;;;;;;;;;;;;;;;;5050957;28;19908;-67
2021/01/12 05:00:32;;;;;;;;;;;;;;;;;;5048089;28;19996;-67
2021/01/12 05:02:58;;;;;;;;;;;;;;;;;;5053202;28;19923;-67
2021/01/12 05:05:24;;;;;;;;;;;;;;;;;;5048443;28;19908;-67
2021/01/12 05:07:49;;;;;;;;;;;;;;;;;;5050590;28;19984;-67
2021/01/12 05:10:16;;;;;;;;;;;;;;;;;;5044919;28;19908;-67
2021/01/12 05:12:41;;;;;;;;;;;;;;;;;;5053329;28;19928;-67
2021/01/12 05:15:07;;;;;;;;;;;;;;;;;;5052312;28;19932;-67
2021/01/12 05:17:33;;;;;;;;;;;;;;;;;;5052397;28;20003;-67
2021/01/12 05:19:59;;;;;;;;;;;;;;;;;;5052971;28;19955;-67
2021/01/12 05:22:25;;;;;;;;;;;;;;;;;;5057594;28;19951;-67
2021/01/12 05:25:18;;;;;;;;;;;;;;;;;;5038962;28;19954;-67
2021/01/12 05:27:37;;;;;;;;;;;;;;;;;;5060594;28;19909;-69
2021/01/12 05:30:03;;;;;;;;;;;;;;;;;;5045571;28;19928;-67
2021/01/12 05:32:29;;;;;;;;;;;;;;;;;;5045417;28;19995;-67
2021/01/12 05:34:55;;;;;;;;;;;;;;;;;;5050893;28;20364;-67
2021/01/12 05:37:21;;;;;;;;;;;;;;;;;;5051529;28;19904;-67
2021/01/12 05:39:47;;;;;;;;;;;;;;;;;;5045216;28;19905;-67
2021/01/12 05:42:13;;;;;;;;;;;;;;;;;;5062395;28;19905;-67
2021/01/12 05:44:39;;;;;;;;;;;;;;;;;;5054455;28;19920;-67
2021/01/12 05:47:04;;;;;;;;;;;;;;;;;;5058558;28;19989;-67
2021/01/12 05:49:30;;;;;;;;;;;;;;;;;;5054953;28;19927;-67
2021/01/12 05:51:56;;;;;;;;;;;;;;;;;;5059127;28;19905;-67
2021/01/12 05:54:22;;;;;;;;;;;;;;;;;;5052768;28;19912;-66
2021/01/12 05:56:49;;;;;;;;;;;;;;;;;;5056665;28;19920;-67
2021/01/12 05:59:15;;;;;;;;;;;;;;;;;;5051220;28;19939;-67
2021/01/12 06:01:41;;;;;;;;;;;;;;;;;;5049429;28;19959;-67
2021/01/12 06:04:07;;;;;;;;;;;;;;;;;;5042891;28;20338;-67
2021/01/12 06:06:33;;;;;;;;;;;;;;;;;;5050854;28;19905;-66
2021/01/12 06:08:59;;;;;;;;;;;;;;;;;;5051776;28;19912;-66
2021/01/12 06:11:25;;;;;;;;;;;;;;;;;;5050173;28;19950;-67
2021/01/12 06:13:51;;;;;;;;;;;;;;;;;;5052209;28;20364;-66
2021/01/12 06:16:17;;;;;;;;;;;;;;;;;;5048725;28;19908;-67
2021/01/12 06:18:42;;;;;;;;;;;;;;;;;;5052199;28;19917;-67
2021/01/12 06:21:08;;;;;;;;;;;;;;;;;;5051022;28;19908;-67
2021/01/12 06:23:34;;;;;;;;;;;;;;;;;;5052734;28;19943;-66
2021/01/12 06:26:00;;;;;;;;;;;;;;;;;;5049446;28;19947;-67
2021/01/12 06:28:26;;;;;;;;;;;;;;;;;;5051219;28;19932;-67
2021/01/12 06:30:52;;;;;;;;;;;;;;;;;;5049015;28;19908;-67
2021/01/12 06:33:18;;;;;;;;;;;;;;;;;;5051948;28;20010;-66
2021/01/12 06:35:45;;;;;;;;;;;;;;;;;;5041314;28;19916;-66
2021/01/12 06:38:11;;;;;;;;;;;;;;;;;;5051900;28;20663;-67
2021/01/12 06:40:37;;;;;;;;;;;;;;;;;;5050719;28;19912;-66
2021/01/12 06:43:03;;;;;;;;;;;;;;;;;;5054059;28;19905;-67
2021/01/12 06:45:29;;;;;;;;;;;;;;;;;;5047809;28;19919;-67
2021/01/12 06:47:55;;;;;;;;;;;;;;;;;;5047854;28;19935;-66
2021/01/12 06:50:21;;;;;;;;;;;;;;;;;;5053424;28;19917;-66
2021/01/12 06:52:47;;;;;;;;;;;;;;;;;;5054381;28;19993;-66
2021/01/12 06:55:13;;;;;;;;;;;;;;;;;;5052646;28;19912;-67
2021/01/12 06:57:39;;;;;;;;;;;;;;;;;;5053700;28;19916;-66
2021/01/12 07:00:05;;;;;;;;;;;;;;;;;;5056106;28;19905;-67
2021/01/12 07:02:31;;;;;;;;;;;;;;;;;;5046244;28;19940;-66
2021/01/12 07:04:56;;;;;;;;;;;;;;;;;;5056245;28;19951;-67
2021/01/12 07:07:23;;;;;;;;;;;;;;;;;;5053918;28;19913;-66
2021/01/12 07:09:49;;;;;;;;;;;;;;;;;;5055849;28;19908;-66
2021/01/12 07:12:15;;;;;;;;;;;;;;;;;;5053703;28;19908;-66
2021/01/12 07:14:41;;;;;;;;;;;;;;;;;;5053931;28;19995;-66
2021/01/12 07:17:07;;;;;;;;;;;;;;;;;;5053151;28;19959;-66
2021/01/12 07:19:33;;;;;;;;;;;;;;;;;;5045956;28;19936;-67
2021/01/12 07:21:59;;;;;;;;;;;;;;;;;;5043208;28;19920;-66
2021/01/12 07:24:25;;;;;;;;;;;;;;;;;;5046694;28;19917;-67
2021/01/12 07:26:50;;;;;;;;;;;;;;;;;;5037626;28;19913;-67
2021/01/12 07:29:16;;;;;;;;;;;;;;;;;;5052460;28;20047;-67
2021/01/12 07:31:42;;;;;;;;;;;;;;;;;;5049253;28;19940;-67
2021/01/12 07:34:08;;;;;;;;;;;;;;;;;;5047030;28;19943;-67
2021/01/12 07:36:34;;;;;;;;;;;;;;;;;;5049372;28;19972;-67
2021/01/12 07:39:00;;;;;;;;;;;;;;;;;;5053671;28;19915;-67
2021/01/12 07:41:26;;;;;;;;;;;;;;;;;;5042419;28;19909;-67
2021/01/12 07:43:52;;;;;;;;;;;;;;;;;;5046025;28;19913;-67
2021/01/12 07:46:18;;;;;;;;;;;;;;;;;;5044532;28;19932;-68
2021/01/12 07:48:44;;;;;;;;;;;;;;;;;;5052217;28;19916;-67
2021/01/12 07:51:10;;;;;;;;;;;;;;;;;;5044926;28;19960;-67
2021/01/12 07:53:36;;;;;;;;;;;;;;;;;;5052626;28;20015;-67
2021/01/12 07:56:03;;;;;;;;;;;;;;;;;;5043250;28;19913;-67
2021/01/12 07:58:29;;;;;;;;;;;;;;;;;;5054436;28;20365;-67
2021/01/12 08:00:55;;;;;;;;;;;;;;;;;;5062929;28;19913;-67
2021/01/12 08:03:21;;;;;;;;;;;;;;;;;;5053310;28;19917;-67
2021/01/12 08:05:47;;;;;;;;;;;;;;;;;;5049720;28;19924;-67
2021/01/12 08:08:13;;;;;;;;;;;;;;;;;;5053398;28;19916;-67
2021/01/12 08:10:39;;;;;;;;;;;;;;;;;;5046835;28;19909;-67
2021/01/12 08:13:05;;;;;;;;;;;;;;;;;;5056732;28;19943;-67
2021/01/12 08:15:31;;;;;;;;;;;;;;;;;;5054120;28;19958;-67
2021/01/12 08:17:57;;;;;;;;;;;;;;;;;;5055688;28;19935;-67
2021/01/12 08:20:23;;;;;;;;;;;;;;;;;;5050454;28;20003;-67
2021/01/12 08:22:49;;;;;;;;;;;;;;;;;;5052418;28;19912;-67
2021/01/12 08:25:14;;;;;;;;;;;;;;;;;;5050955;28;19913;-67
2021/01/12 08:27:40;;;;;;;;;;;;;;;;;;5050880;28;19916;-67
2021/01/12 08:30:06;;;;;;;;;;;;;;;;;;5051337;28;19940;-67
2021/01/12 08:32:32;;;;;;;;;;;;;;;;;;5044473;28;19917;-68
2021/01/12 08:34:58;;;;;;;;;;;;;;;;;;5054432;28;19935;-66
2021/01/12 08:37:24;;;;;;;;;;;;;;;;;;5053773;28;19999;-69
2021/01/12 08:39:50;;;;;;;;;;;;;;;;;;5053759;28;19908;-69
2021/01/12 08:42:16;;;;;;;;;;;;;;;;;;5057678;28;19912;-69
2021/01/12 08:44:42;;;;;;;;;;;;;;;;;;5049354;28;19908;-67
2021/01/12 08:47:08;;;;;;;;;;;;;;;;;;5040201;28;19945;-67
2021/01/12 08:49:34;;;;;;;;;;;;;;;;;;5048049;28;20397;-67
2021/01/12 08:52:00;;;;;;;;;;;;;;;;;;5054696;28;20365;-67
2021/01/12 08:54:26;;;;;;;;;;;;;;;;;;5054830;28;19936;-68
2021/01/12 08:56:51;;;;;;;;;;;;;;;;;;5051385;28;20070;-68
2021/01/12 08:59:17;;;;;;;;;;;;;;;;;;5051736;28;19916;-68
2021/01/12 09:01:44;;;;;;;;;;;;;;;;;;5048543;28;20293;-68
2021/01/12 09:04:10;;;;;;;;;;;;;;;;;;5052802;28;19909;-68
2021/01/12 09:06:36;;;;;;;;;;;;;;;;;;5048861;28;20462;-68
2021/01/12 09:09:02;;;;;;;;;;;;;;;;;;5052196;28;19915;-68
2021/01/12 09:11:28;;;;;;;;;;;;;;;;;;5050851;28;19915;-68
2021/01/12 09:13:53;;;;;;;;;;;;;;;;;;5053403;28;19967;-68
2021/01/12 09:16:19;;;;;;;;;;;;;;;;;;5057220;28;19933;-68
2021/01/12 09:18:45;;;;;;;;;;;;;;;;;;5049975;28;20003;-68
2021/01/12 09:21:11;;;;;;;;;;;;;;;;;;5050959;28;19908;-68
2021/01/12 09:23:37;;;;;;;;;;;;;;;;;;5048140;28;19963;-68
2021/01/12 09:26:03;;;;;;;;;;;;;;;;;;5051394;28;19916;-68
2021/01/12 09:28:31;;;;;;;;;;;;;;;;;;5054801;28;19961;-68
2021/01/12 09:30:57;;;;;;;;;;;;;;;;;;5042690;28;20397;-68
2021/01/12 09:33:23;;;;;;;;;;;;;;;;;;5047575;28;20007;-68
2021/01/12 09:35:49;;;;;;;;;;;;;;;;;;5045561;28;19924;-67
2021/01/12 09:38:15;;;;;;;;;;;;;;;;;;5052089;28;19909;-68
2021/01/12 09:40:41;;;;;;;;;;;;;;;;;;5051592;28;20424;-68
2021/01/12 09:43:06;;;;;;;;;;;;;;;;;;5048097;28;20251;-68
2021/01/12 09:45:34;;;;;;;;;;;;;;;;;;5049916;28;19950;-68
2021/01/12 09:48:00;;;;;;;;;;;;;;;;;;5048770;28;20331;-68
2021/01/12 09:50:26;;;;;;;;;;;;;;;;;;5045219;28;19908;-67
2021/01/12 09:52:52;;;;;;;;;;;;;;;;;;5041769;28;19947;-67
2021/01/12 09:55:18;;;;;;;;;;;;;;;;;;5052115;28;19967;-68
2021/01/12 09:57:47;;;;;;;;;;;;;;;;;;5051872;28;19909;-68
2021/01/12 10:00:13;;;;;;;;;;;;;;;;;;5047911;28;20060;-68
2021/01/12 10:02:38;;;;;;;;;;;;;;;;;;5044599;28;19913;-68
2021/01/12 10:05:04;;;;;;;;;;;;;;;;;;5050962;28;19912;-68
2021/01/12 10:07:30;;;;;;;;;;;;;;;;;;5048575;28;19975;-71
2021/01/12 10:09:56;;;;;;;;;;;;;;;;;;5050386;28;19923;-68
2021/01/12 10:12:22;;;;;;;;;;;;;;;;;;5057202;28;19909;-68
2021/01/12 10:14:48;;;;;;;;;;;;;;;;;;5065354;28;19913;-68
2021/01/12 10:17:14;;;;;;;;;;;;;;;;;;5050159;28;19912;-68
2021/01/12 10:19:40;;;;;;;;;;;;;;;;;;5052463;28;20453;-68
2021/01/12 10:22:06;;;;;;;;;;;;;;;;;;5047816;28;19916;-67
2021/01/12 10:24:32;;;;;;;;;;;;;;;;;;5052777;28;19992;-68
2021/01/12 10:26:58;;;;;;;;;;;;;;;;;;5050947;28;19916;-67
2021/01/12 10:29:26;;;;;;;;;;;;;;;;;;5052643;28;19917;-68
2021/01/12 10:31:52;;;;;;;;;;;;;;;;;;5047791;28;20431;-68
2021/01/12 10:34:20;;;;;;;;;;;;;;;;;;5045751;28;19935;-68
2021/01/12 10:36:46;;;;;;;;;;;;;;;;;;5047557;28;19909;-68
2021/01/12 10:39:11;;;;;;;;;;;;;;;;;;5048343;28;19916;-68
2021/01/12 10:41:38;;;;;;;;;;;;;;;;;;5049511;28;19909;-68
2021/01/12 10:44:04;;;;;;;;;;;;;;;;;;5056854;28;19916;-67
2021/01/12 10:46:30;;;;;;;;;;;;;;;;;;5044780;28;19908;-67
2021/01/12 10:48:55;;;;;;;;;;;;;;;;;;5045956;28;19990;-67
2021/01/12 10:51:22;;;;;;;;;;;;;;;;;;5046977;28;19905;-68
2021/01/12 10:53:48;;;;;;;;;;;;;;;;;;5046009;28;20020;-68
2021/01/12 10:56:13;;;;;;;;;;;;;;;;;;5040590;28;19964;-67
2021/01/12 10:58:39;;;;;;;;;;;;;;;;;;5038835;28;20317;-68
2021/01/12 11:01:05;;;;;;;;;;;;;;;;;;5045091;28;19916;-67
2021/01/12 11:03:31;;;;;;;;;;;;;;;;;;5047816;28;19912;-67
2021/01/12 11:05:59;;;;;;;;;;;;;;;;;;5040409;28;19960;-68
2021/01/12 11:08:25;;;;;;;;;;;;;;;;;;5048751;28;19916;-67
2021/01/12 11:10:51;;;;;;;;;;;;;;;;;;5048683;28;19913;-67
2021/01/12 11:13:17;;;;;;;;;;;;;;;;;;5052867;28;19924;-67
2021/01/12 11:15:44;;;;;;;;;;;;;;;;;;5046308;28;19941;-68
2021/01/12 11:18:10;;;;;;;;;;;;;;;;;;5054208;28;19920;-69
2021/01/12 11:20:41;;;;;;;;;;;;;;;;;;5049602;28;19951;-69
2021/01/12 11:23:07;;;;;;;;;;;;;;;;;;5061048;28;20523;-68
2021/01/12 11:25:33;;;;;;;;;;;;;;;;;;5050213;28;19905;-70
2021/01/12 11:27:58;;;;;;;;;;;;;;;;;;5062905;28;19934;-72
2021/01/12 11:30:24;;;;;;;;;;;;;;;;;;5055487;28;19905;-71
2021/01/12 11:32:52;;;;;;;;;;;;;;;;;;5060209;28;19974;-73
2021/01/12 11:35:18;;;;;;;;;;;;;;;;;;5048420;28;20009;-69
2021/01/12 11:37:46;;;;;;;;;;;;;;;;;;5056540;28;20372;-68
2021/01/12 11:40:12;;;;;;;;;;;;;;;;;;5054731;28;20323;-68
2021/01/12 11:42:38;;;;;;;;;;;;;;;;;;5057256;28;19991;-71
2021/01/12 11:45:04;;;;;;;;;;;;;;;;;;5050712;28;19904;-66
2021/01/12 11:47:30;;;;;;;;;;;;;;;;;;5059313;28;19915;-71
2021/01/12 11:49:56;;;;;;;;;;;;;;;;;;5060612;28;19947;-69
2021/01/12 11:52:21;;;;;;;;;;;;;;;;;;5056216;28;19908;-70
2021/01/12 11:54:47;;;;;;;;;;;;;;;;;;5057839;28;19909;-71
2021/01/12 11:57:13;;;;;;;;;;;;;;;;;;5053658;28;20004;-69
2021/01/12 11:59:39;;;;;;;;;;;;;;;;;;5044646;28;19919;-70
2021/01/12 12:02:05;;;;;;;;;;;;;;;;;;5054056;28;20261;-69
2021/01/12 12:04:31;;;;;;;;;;;;;;;;;;5058784;28;20325;-69
2021/01/12 12:07:03;;;;;;;;;;;;;;;;;;5050301;28;19916;-69
2021/01/12 12:09:29;;;;;;;;;;;;;;;;;;5057913;28;19916;-71
2021/01/12 12:11:55;;;;;;;;;;;;;;;;;;5047286;28;19909;-69
2021/01/12 12:14:21;;;;;;;;;;;;;;;;;;5048925;28;19924;-70
2021/01/12 12:16:46;;;;;;;;;;;;;;;;;;5051817;28;20365;-70
2021/01/12 12:19:12;;;;;;;;;;;;;;;;;;5051331;28;20011;-69
2021/01/12 12:21:38;;;;;;;;;;;;;;;;;;5048052;28;19909;-70
2021/01/12 12:24:04;;;;;;;;;;;;;;;;;;5054488;28;19962;-70
2021/01/12 12:26:30;;;;;;;;;;;;;;;;;;5055831;28;19913;-71
2021/01/12 12:28:56;;;;;;;;;;;;;;;;;;5054037;28;19931;-70
2021/01/12 12:31:22;;;;;;;;;;;;;;;;;;5052211;28;19909;-69
2021/01/12 12:33:48;;;;;;;;;;;;;;;;;;5052405;28;19931;-69
2021/01/12 12:36:14;;;;;;;;;;;;;;;;;;5053653;28;20493;-69
2021/01/12 12:38:44;;;;;;;;;;;;;;;;;;5057859;28;19909;-70
2021/01/12 12:41:10;;;;;;;;;;;;;;;;;;5053038;28;19913;-69
2021/01/12 12:43:36;;;;;;;;;;;;;;;;;;5053040;28;20364;-70
2021/01/12 12:46:02;;;;;;;;;;;;;;;;;;5046702;28;19909;-69
2021/01/12 12:48:28;;;;;;;;;;;;;;;;;;5058654;28;19917;-69
2021/01/12 12:50:54;;;;;;;;;;;;;;;;;;5049334;28;20890;-69
2021/01/12 12:53:19;;;;;;;;;;;;;;;;;;5059412;28;19963;-70
2021/01/12 12:55:45;;;;;;;;;;;;;;;;;;5047797;28;19951;-69
2021/01/12 12:58:11;;;;;;;;;;;;;;;;;;5059750;28;20423;-70
2021/01/12 13:00:37;;;;;;;;;;;;;;;;;;5051123;28;19916;-69
2021/01/12 13:03:03;;;;;;;;;;;;;;;;;;5052104;28;19952;-70
2021/01/12 13:05:29;;;;;;;;;;;;;;;;;;5050217;28;19959;-70
2021/01/12 13:07:55;;;;;;;;;;;;;;;;;;5047977;28;19909;-70
2021/01/12 13:10:21;;;;;;;;;;;;;;;;;;5054459;28;20319;-70
2021/01/12 13:12:47;;;;;;;;;;;;;;;;;;5045839;28;19927;-70
2021/01/12 13:15:13;;;;;;;;;;;;;;;;;;5052088;28;19944;-70
2021/01/12 13:17:39;;;;;;;;;;;;;;;;;;5049635;28;19939;-70
2021/01/12 13:20:05;;;;;;;;;;;;;;;;;;5053636;28;20399;-69
2021/01/12 13:22:31;;;;;;;;;;;;;;;;;;5046333;28;19915;-69
2021/01/12 13:24:57;;;;;;;;;;;;;;;;;;5050485;28;20366;-71
2021/01/12 13:27:25;;;;;;;;;;;;;;;;;;5049853;28;19958;-73
2021/01/12 13:29:51;;;;;;;;;;;;;;;;;;5052240;28;20015;-71
2021/01/12 13:32:16;;;;;;;;;;;;;;;;;;5050688;28;20416;-72
2021/01/12 13:34:42;;;;;;;;;;;;;;;;;;5051149;28;19913;-72
2021/01/12 13:37:08;;;;;;;;;;;;;;;;;;5050151;28;19916;-71
2021/01/12 13:39:34;;;;;;;;;;;;;;;;;;5051647;28;19920;-70
2021/01/12 13:42:00;;;;;;;;;;;;;;;;;;5046830;28;20478;-71
2021/01/12 13:44:26;;;;;;;;;;;;;;;;;;5054179;28;19913;-71
2021/01/12 13:46:52;;;;;;;;;;;;;;;;;;5039428;28;19936;-70
2021/01/12 13:49:18;;;;;;;;;;;;;;;;;;5056097;28;19920;-71
2021/01/12 13:51:44;;;;;;;;;;;;;;;;;;5047021;28;19912;-70
2021/01/12 13:54:09;;;;;;;;;;;;;;;;;;5048472;28;19924;-72
2021/01/12 13:56:35;;;;;;;;;;;;;;;;;;5055647;28;19947;-71
2021/01/12 13:59:01;;;;;;;;;;;;;;;;;;5056277;28;19913;-71
2021/01/12 14:01:27;;;;;;;;;;;;;;;;;;5043030;28;20015;-70
2021/01/12 14:03:53;;;;;;;;;;;;;;;;;;5045012;28;19913;-71
2021/01/12 14:06:19;;;;;;;;;;;;;;;;;;5044966;28;20403;-71
2021/01/12 14:08:45;;;;;;;;;;;;;;;;;;5047603;28;19909;-71
2021/01/12 14:11:10;;;;;;;;;;;;;;;;;;5042814;28;20160;-71
2021/01/12 14:13:36;;;;;;;;;;;;;;;;;;5043994;28;19928;-71
2021/01/12 14:16:02;;;;;;;;;;;;;;;;;;5044161;28;19915;-70
2021/01/12 14:18:28;;;;;;;;;;;;;;;;;;5047650;28;20021;-71
2021/01/12 14:20:54;;;;;;;;;;;;;;;;;;5042640;28;20227;-71
2021/01/12 14:23:20;;;;;;;;;;;;;;;;;;5045320;28;19917;-71
2021/01/12 14:25:46;;;;;;;;;;;;;;;;;;5041977;28;19917;-70
2021/01/12 14:28:11;;;;;;;;;;;;;;;;;;5048061;28;19958;-71
2021/01/12 14:30:37;;;;;;;;;;;;;;;;;;5043628;28;19904;-71
2021/01/12 14:33:03;;;;;;;;;;;;;;;;;;5056403;28;19917;-68
2021/01/12 14:35:30;;;;;;;;;;;;;;;;;;5043447;28;20008;-70
2021/01/12 14:37:56;;;;;;;;;;;;;;;;;;5055344;28;19908;-71
2021/01/12 14:40:22;;;;;;;;;;;;;;;;;;5052079;28;19983;-71
2021/01/12 14:42:49;;;;;;;;;;;;;;;;;;5053592;28;19943;-71
2021/01/12 14:45:15;;;;;;;;;;;;;;;;;;5042314;28;20364;-70
2021/01/12 14:47:41;;;;;;;;;;;;;;;;;;5047254;28;19963;-71
2021/01/12 14:50:07;;;;;;;;;;;;;;;;;;5038851;28;19913;-70
2021/01/12 14:52:33;;;;;;;;;;;;;;;;;;5043756;28;19915;-71
2021/01/12 14:54:58;;;;;;;;;;;;;;;;;;5052899;28;19966;-72
2021/01/12 14:57:24;;;;;;;;;;;;;;;;;;5052164;28;20120;-71
2021/01/12 14:59:51;;;;;;;;;;;;;;;;;;5056174;28;19954;-72
2021/01/12 15:02:17;;;;;;;;;;;;;;;;;;5050070;28;19908;-71
2021/01/12 15:04:43;;;;;;;;;;;;;;;;;;5057951;28;19916;-71
2021/01/12 15:07:09;;;;;;;;;;;;;;;;;;5047943;28;19912;-72
2021/01/12 15:09:35;;;;;;;;;;;;;;;;;;5054515;28;20276;-71
2021/01/12 15:12:00;;;;;;;;;;;;;;;;;;5051085;28;19908;-72
2021/01/12 15:14:26;;;;;;;;;;;;;;;;;;5057380;28;19954;-71
2021/01/12 15:16:52;;;;;;;;;;;;;;;;;;5050416;28;19908;-71
2021/01/12 15:19:18;;;;;;;;;;;;;;;;;;5054682;28;19913;-71
2021/01/12 15:21:44;;;;;;;;;;;;;;;;;;5052765;28;20011;-70
2021/01/12 15:24:10;;;;;;;;;;;;;;;;;;5054219;28;19912;-71
2021/01/12 15:26:36;;;;;;;;;;;;;;;;;;5048080;28;19912;-71
2021/01/12 15:29:02;;;;;;;;;;;;;;;;;;5054934;28;19960;-71
2021/01/12 15:31:28;;;;;;;;;;;;;;;;;;5053009;28;20376;-70
2021/01/12 15:33:54;;;;;;;;;;;;;;;;;;5053353;28;19917;-71
2021/01/12 15:36:20;;;;;;;;;;;;;;;;;;5052608;28;19915;-71
2021/01/12 15:38:46;;;;;;;;;;;;;;;;;;5058597;28;20342;-71
2021/01/12 15:41:11;;;;;;;;;;;;;;;;;;5053436;28;19995;-71
2021/01/12 15:43:37;;;;;;;;;;;;;;;;;;5054666;28;19916;-72
2021/01/12 15:46:03;;;;;;;;;;;;;;;;;;5051403;28;20379;-71
2021/01/12 15:48:30;;;;;;;;;;;;;;;;;;5056408;28;20349;-70
2021/01/12 15:50:56;;;;;;;;;;;;;;;;;;5052141;28;19946;-69
2021/01/12 15:53:21;;;;;;;;;;;;;;;;;;5051824;28;19916;-69
2021/01/12 15:55:47;;;;;;;;;;;;;;;;;;5054914;28;20373;-67
2021/01/12 15:58:13;;;;;;;;;;;;;;;;;;5063104;28;20002;-70
2021/01/12 16:00:39;;;;;;;;;;;;;;;;;;5054563;28;19913;-68
2021/01/12 16:03:05;;;;;;;;;;;;;;;;;;5058807;28;19913;-70
2021/01/12 16:05:31;;;;;;;;;;;;;;;;;;5052566;28;19909;-69
2021/01/12 16:07:58;;;;;;;;;;;;;;;;;;5060267;28;19916;-69
2021/01/12 16:10:24;;;;;;;;;;;;;;;;;;5054336;28;20382;-70
2021/01/12 16:12:50;;;;;;;;;;;;;;;;;;5055265;28;19916;-69
2021/01/12 16:15:15;;;;;;;;;;;;;;;;;;5054708;28;20003;-69
2021/01/12 16:17:41;;;;;;;;;;;;;;;;;;5056733;28;19924;-69
2021/01/12 16:20:07;;;;;;;;;;;;;;;;;;5049300;28;19912;-70
2021/01/12 16:22:33;;;;;;;;;;;;;;;;;;5058745;28;20388;-70
2021/01/12 16:24:59;;;;;;;;;;;;;;;;;;5054058;28;19919;-69
2021/01/12 16:27:25;;;;;;;;;;;;;;;;;;5055550;28;19920;-69
2021/01/12 16:29:51;;;;;;;;;;;;;;;;;;5048207;28;19935;-70
2021/01/12 16:32:17;;;;;;;;;;;;;;;;;;5055554;28;19905;-70
2021/01/12 16:34:43;;;;;;;;;;;;;;;;;;5058969;28;19917;-71
2021/01/12 16:37:09;;;;;;;;;;;;;;;;;;5055865;28;20360;-67